Time;durP1;ratioP1;P1;durP2;ratioP2;P2;SDS_P1;SDS_P2;PMS_P1;PMS_P2;Temp;Humidity;BMP_temperature;BMP_pressure;BME280_temperature;BME280_humidity;BME280_pressure;Samples;Min_cycle;Max_cycle;Signal;HPM_P1;HPM_P2
2022/11/04 00:02:00;;;;;;;3.17;1.52;;;9.10;96.40;;;;;;5012781;28;20022;-66
2022/11/04 00:04:27;;;;;;;3.22;1.48;;;9.20;95.10;;;;;;5012609;28;20100;-66
2022/11/04 00:06:56;;;;;;;3.50;1.20;;;9.20;98.00;;;;;;5012273;28;20113;-68
2022/11/04 00:09:27;;;;;;;2.67;1.40;;;9.30;97.50;;;;;;5015433;28;20046;-67
2022/11/04 00:14:37;;;;;;;2.95;1.40;;;9.40;98.00;;;;;;5015082;28;20083;-67
2022/11/04 00:17:20;;;;;;;3.17;1.45;;;9.30;97.80;;;;;;5014805;28;20034;-66
2022/11/04 00:33:50;;;;;;;3.30;1.58;;;9.50;98.00;;;;;;5015014;28;20029;-66
2022/11/04 00:36:16;;;;;;;3.42;1.60;;;9.50;98.00;;;;;;5014243;28;20129;-66
2022/11/04 00:38:41;;;;;;;4.25;1.42;;;9.60;98.00;;;;;;5013945;28;20112;-66
2022/11/04 00:41:24;;;;;;;2.28;1.20;;;9.50;98.00;;;;;;5013741;28;20330;-68
2022/11/04 00:43:53;;;;;;;2.88;1.30;;;9.50;98.00;;;;;;5013446;28;20030;-68
2022/11/04 00:46:18;;;;;;;4.80;1.60;;;9.50;98.00;;;;;;5014933;28;20425;-66
2022/11/04 00:48:44;;;;;;;2.65;1.10;;;9.50;98.00;;;;;;5015374;28;20030;-66
2022/11/04 00:51:10;;;;;;;2.80;1.35;;;9.50;98.00;;;;;;5018186;28;20018;-68
2022/11/04 00:53:35;;;;;;;3.72;1.25;;;9.50;98.00;;;;;;5017080;28;20022;-67
2022/11/04 00:56:01;;;;;;;2.92;1.35;;;9.50;98.00;;;;;;5018113;28;20029;-65
2022/11/04 00:58:28;;;;;;;2.50;1.20;;;9.50;98.00;;;;;;5018292;28;20109;-67
2022/11/04 01:00:53;;;;;;;2.50;1.40;;;9.50;98.00;;;;;;5018197;28;20033;-65
2022/11/04 01:03:19;;;;;;;3.35;1.20;;;9.50;98.00;;;;;;5019991;28;20407;-67
2022/11/04 01:05:48;;;;;;;2.67;1.00;;;9.50;98.00;;;;;;5018203;28;20414;-65
2022/11/04 01:08:15;;;;;;;2.08;1.13;;;9.50;98.00;;;;;;5015961;28;20022;-67
2022/11/04 01:10:44;;;;;;;1.90;1.10;;;9.60;98.00;;;;;;5017269;28;20033;-66
2022/11/04 01:13:10;;;;;;;3.38;1.30;;;9.60;98.00;;;;;;5017926;28;20018;-65
2022/11/04 01:15:36;;;;;;;2.55;1.10;;;9.70;98.00;;;;;;5017972;28;20028;-67
2022/11/04 01:18:03;;;;;;;4.78;1.30;;;9.70;98.00;;;;;;5018245;28;20014;-65
2022/11/04 01:20:29;;;;;;;2.22;1.10;;;9.70;98.00;;;;;;5018337;28;20057;-67
2022/11/04 01:22:55;;;;;;;2.75;1.30;;;9.70;98.00;;;;;;5016803;28;20378;-67
2022/11/04 01:25:21;;;;;;;2.13;1.10;;;9.70;98.00;;;;;;5014427;28;20049;-65
2022/11/04 01:27:46;;;;;;;2.95;1.10;;;9.60;98.00;;;;;;5016369;28;20117;-67
2022/11/04 01:30:12;;;;;;;3.15;1.23;;;9.60;98.00;;;;;;5017236;28;20029;-67
2022/11/04 01:32:39;;;;;;;2.20;1.05;;;9.60;98.00;;;;;;5016024;28;20030;-66
2022/11/04 01:35:05;;;;;;;2.50;1.23;;;9.60;98.00;;;;;;5015592;28;20398;-67
2022/11/04 01:37:30;;;;;;;2.88;1.40;;;9.50;98.00;;;;;;5013057;28;20415;-66
2022/11/04 01:39:56;;;;;;;3.35;1.30;;;9.50;98.00;;;;;;5024634;28;20028;-67
2022/11/04 01:42:22;;;;;;;2.90;1.33;;;9.40;98.00;;;;;;5024148;28;20410;-69
2022/11/04 01:44:50;;;;;;;4.70;1.45;;;9.20;96.20;;;;;;5018129;28;20018;-71
2022/11/04 01:47:27;;;;;;;6.22;1.73;;;8.80;93.80;;;;;;5017859;28;20080;-70
2022/11/04 01:49:58;;;;;;;1.30;0.90;;;8.30;93.50;;;;;;5017982;28;20477;-70
2022/11/04 01:52:33;;;;;;;1.73;0.90;;;8.10;96.40;;;;;;5033711;28;20101;-69
2022/11/04 01:55:04;;;;;;;1.65;1.00;;;7.80;94.00;;;;;;5025665;28;20029;-69
2022/11/04 01:57:35;;;;;;;2.35;1.10;;;7.80;92.30;;;;;;5036520;28;20024;-69
2022/11/04 02:00:05;;;;;;;2.50;1.00;;;7.70;91.70;;;;;;5037982;28;20093;-69
2022/11/04 02:02:31;;;;;;;1.88;0.90;;;7.70;89.00;;;;;;5038263;28;20056;-69
2022/11/04 02:04:57;;;;;;;1.55;0.88;;;7.70;87.40;;;;;;5025781;28;20032;-69
2022/11/04 02:07:23;;;;;;;2.03;1.00;;;7.70;84.50;;;;;;5013840;28;20430;-69
2022/11/04 02:09:49;;;;;;;2.97;1.10;;;7.70;83.70;;;;;;5016753;28;20338;-69
2022/11/04 02:14:59;;;;;;;2.15;1.00;;;7.70;81.80;;;;;;5025396;28;20041;-70
2022/11/04 02:17:50;;;;;;;2.10;1.10;;;7.70;79.90;;;;;;5030787;28;20635;-69
2022/11/04 02:20:34;;;;;;;2.08;1.00;;;7.70;79.60;;;;;;5029146;28;20032;-69
2022/11/04 02:23:05;;;;;;;;;;;7.70;78.40;;;;;;5017543;28;20036;-69
2022/11/04 02:25:38;;;;;;;2.15;1.08;;;7.60;77.50;;;;;;5032290;28;19917;-69
2022/11/04 02:28:15;;;;;;;2.22;1.05;;;7.70;77.20;;;;;;5030585;28;20080;-69
2022/11/04 02:30:48;;;;;;;2.97;0.90;;;7.60;76.20;;;;;;5036817;28;20377;-69
2022/11/04 02:33:24;;;;;;;2.22;1.00;;;7.60;75.70;;;;;;5037636;28;20033;-69
2022/11/04 02:36:04;;;;;;;3.40;1.10;;;7.60;75.20;;;;;;5028035;28;20041;-70
2022/11/04 02:38:56;;;;;;;2.08;0.90;;;7.60;75.40;;;;;;5004603;28;20033;-69
2022/11/04 02:41:43;;;;;;;3.15;1.05;;;7.60;74.90;;;;;;5017124;28;20042;-69
2022/11/04 02:44:34;;;;;;;2.75;1.30;;;7.60;74.40;;;;;;5016971;28;20034;-69
2022/11/04 02:47:13;;;;;;;1.92;1.02;;;7.60;74.80;;;;;;5017487;28;20164;-68
2022/11/04 02:49:57;;;;;;;3.25;1.10;;;7.60;75.00;;;;;;5017721;28;20025;-68
2022/11/04 02:52:32;;;;;;;3.35;1.08;;;7.60;74.90;;;;;;5016510;28;20029;-68
2022/11/04 02:55:06;;;;;;;2.65;1.00;;;7.60;74.40;;;;;;5016930;28;20022;-69
2022/11/04 02:57:37;;;;;;;2.42;1.10;;;7.60;76.40;;;;;;5016966;28;20057;-70
2022/11/04 03:00:12;;;;;;;2.60;1.20;;;7.50;76.40;;;;;;5017505;28;20052;-69
2022/11/04 03:02:51;;;;;;;2.35;1.27;;;7.50;75.90;;;;;;5027178;28;20049;-69
2022/11/04 03:05:21;;;;;;;1.98;1.00;;;7.50;76.00;;;;;;5026487;28;20105;-69
2022/11/04 03:07:57;;;;;;;3.90;1.15;;;7.50;76.70;;;;;;5016224;28;20037;-69
2022/11/04 03:10:33;;;;;;;3.17;1.13;;;7.60;78.60;;;;;;5020127;28;20013;-69
2022/11/04 03:13:43;;;;;;;2.63;1.20;;;7.50;81.70;;;;;;5035080;28;20032;-70
2022/11/04 03:16:16;;;;;;;3.80;1.30;;;7.50;83.80;;;;;;5034035;28;20037;-69
2022/11/04 03:18:58;;;;;;;2.40;1.08;;;7.50;84.60;;;;;;5024488;28;20061;-69
2022/11/04 03:21:30;;;;;;;2.70;1.20;;;7.40;85.30;;;;;;5027436;28;20037;-69
2022/11/04 03:23:56;;;;;;;3.45;1.20;;;7.40;85.60;;;;;;5036629;28;20116;-68
2022/11/04 03:26:31;;;;;;;4.32;1.38;;;7.30;85.90;;;;;;5036395;28;20120;-68
2022/11/04 03:29:07;;;;;;;3.65;1.10;;;7.30;87.60;;;;;;5036478;28;20021;-68
2022/11/04 03:31:44;;;;;;;3.03;1.10;;;7.30;88.40;;;;;;5023421;28;20026;-70
2022/11/04 03:34:10;;;;;;;2.65;1.13;;;7.30;88.90;;;;;;5016607;28;20104;-68
2022/11/04 03:36:35;;;;;;;2.90;1.30;;;7.20;89.10;;;;;;5021935;28;20038;-70
2022/11/04 03:39:01;;;;;;;3.58;1.42;;;7.20;89.00;;;;;;4997083;28;20030;-69
2022/11/04 03:41:48;;;;;;;3.30;1.20;;;7.20;88.70;;;;;;5020015;28;20033;-68
2022/11/04 03:44:13;;;;;;;3.65;1.45;;;7.20;88.70;;;;;;5035342;28;20101;-69
2022/11/04 03:46:39;;;;;;;3.78;1.30;;;7.10;87.70;;;;;;5036113;28;20064;-69
2022/11/04 03:49:06;;;;;;;3.05;1.10;;;7.10;87.40;;;;;;5036278;28;20439;-68
2022/11/04 03:51:33;;;;;;;2.67;1.30;;;7.10;86.90;;;;;;5022915;28;20029;-69
2022/11/04 03:53:59;;;;;;;5.97;1.20;;;7.10;87.10;;;;;;5016216;28;20053;-68
2022/11/04 03:56:53;;;;;;;3.22;1.30;;;7.10;87.60;;;;;;5016576;28;20449;-68
2022/11/04 03:59:21;;;;;;;3.33;1.60;;;7.20;89.60;;;;;;5015597;28;20091;-70
2022/11/04 04:01:52;;;;;;;4.95;1.40;;;7.20;90.40;;;;;;5016377;28;20053;-67
2022/11/04 04:04:38;;;;;;;2.40;1.05;;;7.20;90.50;;;;;;5018851;28;20037;-69
2022/11/04 04:07:11;;;;;;;2.78;1.10;;;7.10;91.30;;;;;;5009034;28;20113;-69
2022/11/04 04:09:48;;;;;;;3.30;1.10;;;7.10;91.10;;;;;;5017249;28;20026;-68
2022/11/04 04:12:24;;;;;;;2.08;1.08;;;7.00;90.40;;;;;;5020513;28;20041;-69
2022/11/04 04:14:56;;;;;;;2.90;1.35;;;7.00;90.50;;;;;;5030726;28;20505;-68
2022/11/04 04:17:36;;;;;;;3.45;1.30;;;7.00;90.00;;;;;;5015848;28;20303;-68
2022/11/04 04:20:11;;;;;;;3.83;1.58;;;6.90;89.20;;;;;;5015374;28;20037;-68
2022/11/04 04:22:44;;;;;;;4.30;1.40;;;7.00;91.60;;;;;;5011770;28;20318;-68
2022/11/04 04:28:01;;;;;;;4.93;1.40;;;7.00;92.60;;;;;;5015031;28;20076;-68
2022/11/04 04:30:28;;;;;;;1.80;1.05;;;7.00;92.60;;;;;;5001146;28;20033;-68
2022/11/04 04:33:07;;;;;;;3.13;1.30;;;7.00;92.40;;;;;;5023488;28;20022;-67
2022/11/04 04:35:51;;;;;;;4.18;1.60;;;6.90;92.40;;;;;;5015463;28;20105;-68
2022/11/04 04:46:43;;;;;;;2.35;1.25;;;6.70;89.00;;;;;;5016166;28;20084;-68
2022/11/04 04:49:09;;;;;;;2.95;1.38;;;6.70;87.70;;;;;;5015656;28;20044;-68
2022/11/04 04:51:39;;;;;;;2.15;1.17;;;6.60;88.00;;;;;;5015731;28;20465;-67
2022/11/04 04:54:05;;;;;;;3.83;1.48;;;6.60;86.70;;;;;;5014292;28;20113;-68
2022/11/04 04:56:31;;;;;;;2.58;1.10;;;6.60;86.80;;;;;;5016432;28;20113;-68
2022/11/04 04:58:56;;;;;;;5.72;1.63;;;6.60;86.20;;;;;;5013579;28;20030;-68
2022/11/04 05:01:25;;;;;;;3.38;1.60;;;6.60;86.00;;;;;;5017959;28;20030;-67
2022/11/04 05:03:53;;;;;;;3.65;1.70;;;6.50;86.20;;;;;;5019048;28;20079;-67
2022/11/04 05:06:19;;;;;;;4.03;1.80;;;6.50;85.50;;;;;;5020317;28;20030;-66
2022/11/04 05:08:45;;;;;;;4.68;1.80;;;6.50;84.70;;;;;;5014088;28;20037;-68
2022/11/04 05:11:11;;;;;;;5.30;1.48;;;6.50;84.30;;;;;;5015056;28;20117;-67
2022/11/04 05:13:40;;;;;;;3.47;1.63;;;6.40;84.40;;;;;;5013855;28;20030;-67
2022/11/04 05:16:08;;;;;;;4.88;1.80;;;6.40;83.20;;;;;;5015517;28;20030;-67
2022/11/04 05:18:35;;;;;;;4.78;1.70;;;6.40;83.70;;;;;;5013317;28;20033;-68
2022/11/04 05:21:19;;;;;;;6.80;1.70;;;6.30;83.00;;;;;;5015083;28;20037;-68
2022/11/04 05:23:47;;;;;;;2.95;1.30;;;6.20;81.00;;;;;;5014471;28;20026;-68
2022/11/04 05:26:16;;;;;;;2.33;1.30;;;6.30;78.60;;;;;;5013788;28;20061;-68
2022/11/04 05:28:42;;;;;;;4.00;1.60;;;6.40;78.50;;;;;;5013580;28;20104;-68
2022/11/04 05:31:07;;;;;;;7.15;1.75;;;6.40;80.30;;;;;;5015486;28;20145;-68
2022/11/04 05:33:39;;;;;;;4.78;1.60;;;6.30;79.60;;;;;;5012542;28;20370;-68
2022/11/04 05:36:13;;;;;;;4.20;1.75;;;6.20;78.00;;;;;;5012621;28;20022;-68
2022/11/04 05:38:39;;;;;;;4.90;1.67;;;6.20;77.50;;;;;;5018337;28;20306;-66
2022/11/04 05:41:09;;;;;;;4.63;2.40;;;6.20;76.80;;;;;;5016729;28;20034;-66
2022/11/04 05:43:35;;;;;;;3.58;1.42;;;6.20;76.60;;;;;;5016322;28;20041;-66
2022/11/04 05:46:01;;;;;;;3.50;1.50;;;6.20;76.70;;;;;;5021801;28;20319;-66
2022/11/04 05:48:27;;;;;;;5.07;1.40;;;6.20;76.80;;;;;;5019253;28;20033;-66
2022/11/04 05:50:53;;;;;;;3.80;1.70;;;6.20;77.40;;;;;;5017473;28;20028;-67
2022/11/04 05:53:21;;;;;;;3.47;1.50;;;6.20;77.60;;;;;;5015597;28;20100;-68
2022/11/04 05:55:47;;;;;;;5.55;1.45;;;6.10;77.60;;;;;;5018502;28;20366;-68
2022/11/04 05:58:13;;;;;;;3.65;1.60;;;6.10;77.10;;;;;;5018611;28;20022;-68
2022/11/04 06:00:39;;;;;;;3.00;1.40;;;6.20;78.20;;;;;;5016990;28;20038;-68
2022/11/04 06:03:04;;;;;;;4.72;1.33;;;6.20;80.20;;;;;;5017848;28;20040;-68
2022/11/04 06:05:33;;;;;;;3.15;1.40;;;6.20;81.00;;;;;;5018929;28;20375;-68
2022/11/04 06:07:59;;;;;;;3.25;1.30;;;6.20;82.00;;;;;;5017152;28;20022;-67
2022/11/04 06:10:27;;;;;;;5.40;1.83;;;6.10;82.10;;;;;;5018975;28;20020;-67
2022/11/04 06:12:53;;;;;;;3.55;1.48;;;6.10;83.40;;;;;;5018262;28;20093;-67
2022/11/04 06:15:18;;;;;;;3.05;1.30;;;6.10;82.80;;;;;;5014441;28;20418;-67
2022/11/04 06:17:44;;;;;;;2.90;1.50;;;6.10;83.90;;;;;;5014342;28;20034;-68
2022/11/04 06:20:10;;;;;;;4.85;1.73;;;6.20;85.40;;;;;;4928714;28;20085;-67
2022/11/04 06:22:36;;;;;;;5.25;1.30;;;6.20;85.90;;;;;;5019431;28;20341;-67
2022/11/04 06:25:07;;;;;;;4.25;1.50;;;6.20;86.10;;;;;;5021373;28;20053;-68
2022/11/04 06:27:35;;;;;;;3.28;1.20;;;6.10;85.90;;;;;;5020931;28;20036;-67
2022/11/04 06:30:01;;;;;;;4.13;1.40;;;6.20;86.60;;;;;;5017321;28;20023;-67
2022/11/04 06:32:27;;;;;;;2.75;1.40;;;6.20;86.30;;;;;;5016480;28;20327;-68
2022/11/04 06:34:52;;;;;;;3.42;1.48;;;6.20;86.70;;;;;;5016772;28;20104;-68
2022/11/04 06:37:18;;;;;;;4.13;1.42;;;6.10;86.30;;;;;;5015577;28;20034;-68
2022/11/04 06:39:46;;;;;;;3.63;1.58;;;6.10;85.70;;;;;;5020543;28;20052;-68
2022/11/04 06:42:12;;;;;;;3.88;1.52;;;6.10;85.80;;;;;;5019862;28;20029;-68
2022/11/04 06:44:38;;;;;;;4.03;1.80;;;6.10;85.00;;;;;;5017781;28;20404;-68
2022/11/04 06:47:03;;;;;;;4.05;1.60;;;6.10;84.60;;;;;;5011435;28;20092;-67
2022/11/04 06:49:29;;;;;;;4.68;1.58;;;6.00;84.20;;;;;;5013622;28;20026;-67
2022/11/04 06:51:55;;;;;;;5.35;1.83;;;6.00;84.80;;;;;;5012877;28;20030;-68
2022/11/04 06:54:20;;;;;;;5.35;2.60;;;6.10;85.20;;;;;;5017420;28;20422;-68
2022/11/04 06:56:46;;;;;;;5.75;1.70;;;6.00;85.70;;;;;;5016600;28;20026;-67
2022/11/04 06:59:15;;;;;;;5.70;1.90;;;6.10;85.70;;;;;;5015326;28;20038;-67
2022/11/04 07:01:41;;;;;;;8.95;3.03;;;6.10;86.20;;;;;;5013662;28;20034;-69
2022/11/04 07:04:06;;;;;;;6.15;2.60;;;6.10;86.90;;;;;;5016343;28;20415;-68
2022/11/04 07:06:32;;;;;;;7.20;1.80;;;6.20;88.00;;;;;;5016081;28;20034;-68
2022/11/04 07:09:00;;;;;;;5.18;1.73;;;6.20;90.20;;;;;;5016037;28;20033;-68
2022/11/04 07:11:28;;;;;;;5.45;2.25;;;6.30;91.40;;;;;;5019308;28;20028;-68
2022/11/04 07:13:54;;;;;;;6.15;1.90;;;6.30;91.90;;;;;;5022378;28;20481;-67
2022/11/04 07:16:20;;;;;;;7.28;2.85;;;6.40;92.60;;;;;;5026501;28;20105;-68
2022/11/04 07:18:46;;;;;;;11.25;6.50;;;6.40;92.50;;;;;;5017200;28;20022;-68
2022/11/04 07:21:12;;;;;;;8.68;2.58;;;6.40;92.90;;;;;;5016432;28;20018;-67
2022/11/04 07:23:38;;;;;;;6.78;2.80;;;6.50;93.10;;;;;;5016739;28;20030;-68
2022/11/04 07:26:06;;;;;;;5.72;2.42;;;6.50;93.20;;;;;;5028131;28;20460;-67
2022/11/04 07:28:35;;;;;;;7.40;2.67;;;6.60;93.10;;;;;;5015785;28;20101;-67
2022/11/04 07:31:03;;;;;;;7.50;2.35;;;6.60;94.20;;;;;;5016476;28;20029;-67
2022/11/04 07:33:28;;;;;;;7.38;2.38;;;6.70;95.80;;;;;;5014746;28;20073;-68
2022/11/04 07:35:54;;;;;;;5.22;2.25;;;6.80;95.70;;;;;;5015972;28;20061;-68
2022/11/04 07:38:21;;;;;;;5.57;2.08;;;6.90;98.00;;;;;;5013329;28;20026;-67
2022/11/04 07:40:50;;;;;;;5.78;2.03;;;6.90;98.00;;;;;;5015812;28;20426;-67
2022/11/04 07:43:15;;;;;;;6.55;2.38;;;7.10;98.00;;;;;;5016854;28;20070;-68
2022/11/04 07:45:41;;;;;;;5.97;2.15;;;7.10;98.00;;;;;;5015586;28;20504;-68
2022/11/04 07:48:07;;;;;;;4.72;1.67;;;7.20;98.00;;;;;;5013928;28;20029;-67
2022/11/04 07:50:33;;;;;;;6.65;1.70;;;7.20;98.00;;;;;;5016665;28;20029;-68
2022/11/04 07:53:02;;;;;;;5.47;1.60;;;7.30;98.00;;;;;;5013818;28;20432;-68
2022/11/04 07:55:28;;;;;;;5.50;2.83;;;7.30;98.00;;;;;;5015671;28;20034;-68
2022/11/04 07:57:54;;;;;;;6.20;2.28;;;7.40;98.00;;;;;;5015281;28;20036;-67
2022/11/04 08:00:22;;;;;;;6.90;2.05;;;7.60;98.00;;;;;;5015305;28;20022;-68
2022/11/04 08:02:48;;;;;;;5.70;1.60;;;7.80;98.00;;;;;;5014718;28;20419;-67
2022/11/04 08:05:14;;;;;;;5.90;1.70;;;7.90;98.00;;;;;;5015939;28;20091;-68
2022/11/04 08:07:40;;;;;;;4.13;1.80;;;8.00;98.00;;;;;;5013970;28;20437;-67
2022/11/04 08:10:07;;;;;;;8.52;2.10;;;8.10;98.00;;;;;;5015371;28;20101;-67
2022/11/04 08:12:33;;;;;;;7.13;2.15;;;8.10;98.00;;;;;;5016242;28;20026;-67
2022/11/04 08:14:58;;;;;;;8.60;2.00;;;8.30;98.00;;;;;;5015350;28;20092;-67
2022/11/04 08:17:27;;;;;;;5.20;1.45;;;8.30;98.00;;;;;;5014446;28;20072;-67
2022/11/04 08:19:53;;;;;;;20.35;3.33;;;8.40;98.00;;;;;;5010847;28;20025;-68
2022/11/04 08:22:19;;;;;;;7.93;1.70;;;8.40;98.00;;;;;;5014979;28;20334;-67
2022/11/04 08:24:47;;;;;;;5.38;1.40;;;8.60;98.00;;;;;;5013691;28;20133;-67
2022/11/04 08:27:13;;;;;;;4.30;1.38;;;8.80;98.00;;;;;;5014988;28;20358;-67
2022/11/04 08:29:39;;;;;;;5.35;1.40;;;9.00;98.00;;;;;;5016171;28;20030;-68
2022/11/04 08:32:06;;;;;;;5.22;1.60;;;9.10;98.00;;;;;;5014743;28;20038;-67
2022/11/04 08:34:31;;;;;;;3.75;1.60;;;9.20;98.00;;;;;;5015100;28;20034;-67
2022/11/04 08:36:59;;;;;;;5.78;1.65;;;9.30;98.00;;;;;;5012994;28;20030;-66
2022/11/04 08:39:25;;;;;;;5.50;1.83;;;9.30;98.00;;;;;;5015286;28;20083;-67
2022/11/04 08:41:52;;;;;;;3.70;1.38;;;9.30;98.00;;;;;;5015910;28;20417;-67
2022/11/04 08:44:18;;;;;;;4.32;1.38;;;9.20;97.80;;;;;;5015103;28;20026;-69
2022/11/04 08:46:45;;;;;;;4.78;1.38;;;9.30;98.00;;;;;;5013437;28;20041;-67
2022/11/04 08:49:12;;;;;;;4.50;1.40;;;9.30;97.70;;;;;;5013550;28;20140;-67
2022/11/04 08:51:40;;;;;;;4.22;1.40;;;9.30;98.00;;;;;;5013828;28;20030;-68
2022/11/04 08:54:06;;;;;;;8.38;1.73;;;9.30;98.00;;;;;;5015885;28;20433;-69
2022/11/04 08:56:35;;;;;;;4.75;1.40;;;9.30;98.00;;;;;;5015382;28;20074;-68
2022/11/04 08:59:01;;;;;;;4.90;1.58;;;9.30;98.00;;;;;;5015460;28;20034;-67
2022/11/04 09:01:31;;;;;;;6.22;2.05;;;9.30;98.00;;;;;;5013604;28;20022;-68
2022/11/04 09:03:56;;;;;;;7.35;1.88;;;9.30;98.00;;;;;;5015888;28;20092;-68
2022/11/04 09:06:35;;;;;;;4.78;1.60;;;9.20;98.00;;;;;;5013720;28;20038;-68
2022/11/04 09:09:04;;;;;;;8.93;3.50;;;9.20;98.00;;;;;;5016924;28;20030;-68
2022/11/04 09:11:32;;;;;;;4.22;1.50;;;9.20;98.00;;;;;;5018620;28;20449;-67
2022/11/04 09:13:59;;;;;;;5.50;1.92;;;9.30;98.00;;;;;;5018516;28;20026;-68
2022/11/04 09:16:26;;;;;;;5.05;1.63;;;9.30;98.00;;;;;;5017971;28;20354;-68
2022/11/04 09:18:56;;;;;;;4.78;1.70;;;9.30;98.00;;;;;;5017899;28;20049;-67
2022/11/04 09:21:23;;;;;;;3.08;1.55;;;9.30;98.00;;;;;;5018075;28;20036;-67
2022/11/04 09:23:48;;;;;;;4.07;1.73;;;9.20;98.00;;;;;;5018427;28;20022;-67
2022/11/04 09:26:15;;;;;;;4.85;1.70;;;9.30;98.00;;;;;;5019035;28;20096;-67
2022/11/04 09:28:44;;;;;;;7.72;1.50;;;9.40;98.00;;;;;;5018253;28;20033;-67
2022/11/04 09:31:14;;;;;;;3.65;1.42;;;9.60;98.00;;;;;;5024045;28;20034;-68
2022/11/04 09:33:40;;;;;;;3.58;1.60;;;9.70;98.00;;;;;;5018333;28;20071;-67
2022/11/04 09:36:08;;;;;;;6.10;1.40;;;9.90;98.00;;;;;;5018029;28;20376;-67
2022/11/04 09:38:36;;;;;;;4.72;1.90;;;10.00;98.00;;;;;;5017155;28;20061;-68
2022/11/04 09:41:26;;;;;;;5.05;2.08;;;10.10;98.00;;;;;;5018301;28;20101;-67
2022/11/04 09:44:10;;;;;;;6.43;2.03;;;10.00;98.00;;;;;;5018032;28;20060;-68
2022/11/04 09:46:36;;;;;;;5.13;1.70;;;10.20;97.70;;;;;;5017304;28;20120;-67
2022/11/04 09:49:05;;;;;;;5.20;1.38;;;10.30;97.80;;;;;;5018638;28;20084;-68
2022/11/04 09:51:31;;;;;;;7.68;1.75;;;10.60;97.70;;;;;;5017659;28;20030;-67
2022/11/04 09:54:07;;;;;;;4.30;1.40;;;10.80;96.70;;;;;;5017779;28;20034;-67
2022/11/04 09:56:41;;;;;;;5.97;1.40;;;10.80;96.10;;;;;;5017953;28;20026;-68
2022/11/04 09:59:12;;;;;;;8.90;2.45;;;10.90;95.30;;;;;;5018365;28;20387;-67
2022/11/04 10:01:59;;;;;;;6.60;1.95;;;11.20;95.80;;;;;;5017013;28;20358;-67
2022/11/04 10:04:42;;;;;;;6.78;2.10;;;11.40;94.90;;;;;;4998849;28;20026;-68
2022/11/04 10:07:17;;;;;;;6.97;2.67;;;11.40;93.80;;;;;;5005971;28;20077;-67
2022/11/04 10:10:24;;;;;;;4.60;1.70;;;11.60;94.80;;;;;;5018335;28;20029;-67
2022/11/04 10:13:10;;;;;;;3.33;1.35;;;11.70;92.40;;;;;;4998858;28;20042;-67
2022/11/04 10:15:42;;;;;;;5.05;1.58;;;11.60;93.10;;;;;;5008542;28;20054;-68
2022/11/04 10:18:35;;;;;;;5.82;1.50;;;11.80;93.40;;;;;;5016511;28;20036;-67
2022/11/04 10:21:22;;;;;;;4.63;1.27;;;11.80;92.50;;;;;;5017015;28;20117;-67
2022/11/04 10:24:14;;;;;;;8.43;1.60;;;11.90;93.30;;;;;;5017003;28;20045;-67
2022/11/04 10:26:43;;;;;;;5.38;1.40;;;12.00;91.10;;;;;;5016056;28;20046;-68
2022/11/04 10:29:18;;;;;;;4.30;1.30;;;12.10;91.80;;;;;;5017165;28;20394;-68
2022/11/04 10:31:46;;;;;;;4.88;1.48;;;12.30;91.50;;;;;;5017302;28;20030;-67
2022/11/04 10:34:28;;;;;;;5.90;1.30;;;12.20;90.50;;;;;;5016518;28;20037;-67
2022/11/04 10:36:56;;;;;;;6.50;2.00;;;12.30;91.10;;;;;;5015570;28;20064;-67
2022/11/04 10:39:38;;;;;;;14.95;6.70;;;12.40;88.40;;;;;;5017969;28;20034;-67
2022/11/04 10:42:04;;;;;;;5.80;1.67;;;12.50;88.30;;;;;;5016881;28;20033;-67
2022/11/04 10:44:35;;;;;;;4.85;1.88;;;12.30;88.00;;;;;;5017109;28;20040;-67
2022/11/04 10:47:13;;;;;;;7.35;2.58;;;12.00;87.10;;;;;;5016082;28;20036;-67
2022/11/04 10:49:48;;;;;;;5.65;1.42;;;12.00;88.00;;;;;;5017717;28;20030;-67
2022/11/04 10:52:14;;;;;;;6.60;1.65;;;11.80;88.60;;;;;;5015531;28;20026;-67
2022/11/04 10:54:44;;;;;;;6.25;1.40;;;11.70;88.90;;;;;;5017582;28;20033;-67
2022/11/04 10:57:14;;;;;;;5.85;1.40;;;11.70;89.60;;;;;;5016663;28;20034;-67
2022/11/04 10:59:59;;;;;;;15.40;10.38;;;11.90;88.30;;;;;;5016930;28;20021;-67
2022/11/04 11:02:36;;;;;;;5.85;1.42;;;12.30;87.50;;;;;;5016588;28;20029;-67
2022/11/04 11:05:17;;;;;;;6.60;1.38;;;12.50;86.90;;;;;;5017407;28;20037;-68
2022/11/04 11:07:51;;;;;;;4.05;1.15;;;12.90;86.30;;;;;;5015562;28;20370;-67
2022/11/04 11:10:29;;;;;;;5.35;1.00;;;13.40;85.40;;;;;;5017468;28;20030;-67
2022/11/04 11:13:01;;;;;;;6.18;1.20;;;13.40;82.90;;;;;;5014072;28;20312;-67
2022/11/04 11:15:35;;;;;;;6.88;1.40;;;13.40;83.20;;;;;;5015668;28;20026;-67
2022/11/04 11:18:12;;;;;;;7.07;1.58;;;13.10;83.70;;;;;;5015426;28;20037;-67
2022/11/04 11:20:39;;;;;;;5.88;1.17;;;12.70;84.40;;;;;;5016042;28;20129;-67
2022/11/04 11:23:34;;;;;;;7.50;1.63;;;12.90;85.00;;;;;;5015915;28;20028;-67
2022/11/04 11:26:03;;;;;;;;;;;12.50;85.00;;;;;;5016401;28;20100;-67
2022/11/04 11:28:29;;;;;;;8.00;1.50;;;12.20;85.30;;;;;;5017027;28;19905;-66
2022/11/04 11:31:03;;;;;;;6.45;1.63;;;12.10;87.50;;;;;;5014896;28;20323;-66
2022/11/04 11:33:31;;;;;;;6.47;1.58;;;12.00;87.50;;;;;;5009892;28;20021;-66
2022/11/04 11:36:22;;;;;;;7.20;1.80;;;12.00;87.10;;;;;;5016157;28;20029;-66
2022/11/04 11:39:04;;;;;;;7.80;1.85;;;11.90;87.10;;;;;;5007227;28;20030;-68
2022/11/04 11:41:50;;;;;;;6.65;1.98;;;11.70;87.70;;;;;;5015786;28;20041;-68
2022/11/04 11:44:21;;;;;;;7.88;1.90;;;11.40;88.00;;;;;;5015999;28;20026;-67
2022/11/04 11:46:56;;;;;;;11.43;3.00;;;11.40;88.40;;;;;;5015954;28;20034;-68
2022/11/04 11:49:29;;;;;;;10.18;3.75;;;11.50;89.60;;;;;;5015066;28;20022;-68
2022/11/04 11:51:55;;;;;;;13.88;5.45;;;11.60;89.10;;;;;;5015212;28;20300;-67
2022/11/04 11:54:49;;;;;;;7.22;2.97;;;11.60;89.00;;;;;;5014998;28;20076;-67
2022/11/04 11:57:54;;;;;;;18.70;12.10;;;11.60;88.50;;;;;;5015271;28;20322;-67
2022/11/04 12:00:27;;;;;;;15.30;10.80;;;11.50;89.00;;;;;;5015317;28;20097;-67
2022/11/04 12:03:10;;;;;;;18.48;13.65;;;11.40;89.00;;;;;;5002534;28;20032;-67
2022/11/04 12:05:44;;;;;;;6.28;2.15;;;11.40;88.80;;;;;;5016401;28;20046;-67
2022/11/04 12:08:34;;;;;;;8.82;3.30;;;11.40;89.70;;;;;;5014337;28;20461;-67
2022/11/04 12:11:09;;;;;;;10.70;4.82;;;11.60;89.80;;;;;;5015615;28;20077;-67
2022/11/04 12:14:02;;;;;;;8.15;3.28;;;11.70;89.60;;;;;;5015309;28;20315;-67
2022/11/04 12:16:40;;;;;;;11.35;5.85;;;12.00;88.90;;;;;;5014581;28;20108;-67
2022/11/04 12:19:25;;;;;;;8.63;2.80;;;12.60;86.80;;;;;;5014583;28;20040;-67
2022/11/04 12:22:06;;;;;;;7.82;3.05;;;13.00;86.60;;;;;;5014406;28;20076;-67
2022/11/04 12:25:04;;;;;;;8.65;1.60;;;13.40;83.50;;;;;;5015987;28;20022;-67
2022/11/04 12:27:52;;;;;;;14.80;7.22;;;13.50;83.80;;;;;;5013140;28;20929;-67
2022/11/04 12:30:23;;;;;;;49.65;34.40;;;13.70;83.00;;;;;;5015067;28;20069;-67
2022/11/04 12:32:57;;;;;;;35.05;23.33;;;13.50;82.90;;;;;;5015164;28;20105;-67
2022/11/04 12:35:36;;;;;;;6.35;2.13;;;13.10;84.10;;;;;;5016152;28;20030;-67
2022/11/04 12:38:30;;;;;;;10.10;1.88;;;13.00;84.70;;;;;;5013706;28;20053;-67
2022/11/04 12:41:07;;;;;;;9.13;4.50;;;13.20;84.00;;;;;;5015133;28;20053;-66
2022/11/04 12:43:36;;;;;;;10.23;1.90;;;13.50;84.90;;;;;;5016081;28;20026;-68
2022/11/04 12:46:30;;;;;;;5.65;1.40;;;13.70;83.20;;;;;;5019819;28;20033;-67
2022/11/04 12:49:32;;;;;;;5.47;1.58;;;13.90;82.90;;;;;;5020068;28;20411;-66
2022/11/04 12:52:01;;;;;;;11.38;3.63;;;13.90;82.10;;;;;;5017921;28;20026;-67
2022/11/04 12:54:45;;;;;;;10.75;4.88;;;13.70;82.60;;;;;;5019608;28;20065;-67
2022/11/04 12:57:34;;;;;;;7.65;2.17;;;13.20;83.10;;;;;;5018146;28;20105;-67
2022/11/04 12:59:59;;;;;;;8.30;3.22;;;12.90;84.00;;;;;;5019648;28;20427;-67
2022/11/04 13:02:33;;;;;;;8.15;4.00;;;12.50;84.70;;;;;;5018845;28;20044;-67
2022/11/04 13:05:08;;;;;;;10.93;2.53;;;12.20;86.40;;;;;;5019680;28;20572;-67
2022/11/04 13:07:49;;;;;;;6.72;2.20;;;12.10;87.40;;;;;;5017744;28;20045;-67
2022/11/04 13:10:26;;;;;;;11.57;2.28;;;12.00;87.70;;;;;;5034435;28;20461;-67
2022/11/04 13:12:54;;;;;;;9.32;2.53;;;11.90;86.50;;;;;;5011665;28;20037;-67
2022/11/04 13:15:23;;;;;;;7.90;2.90;;;11.70;87.60;;;;;;5019382;28;20438;-67
2022/11/04 13:17:59;;;;;;;10.23;2.63;;;11.70;88.40;;;;;;5018485;28;20030;-67
2022/11/04 13:20:54;;;;;;;13.82;3.58;;;11.60;89.40;;;;;;5019342;28;20105;-67
2022/11/04 13:23:26;;;;;;;10.80;4.35;;;11.30;88.90;;;;;;5017371;28;20026;-67
2022/11/04 13:25:53;;;;;;;9.27;3.35;;;10.90;90.00;;;;;;5017741;28;20038;-67
2022/11/04 13:28:22;;;;;;;8.60;2.83;;;10.70;91.90;;;;;;5016978;28;20025;-67
2022/11/04 13:31:18;;;;;;;7.40;4.45;;;10.50;92.60;;;;;;5018004;28;20048;-68
2022/11/04 13:34:06;;;;;;;8.93;3.80;;;10.30;93.10;;;;;;5017938;28;20051;-67
2022/11/04 13:36:45;;;;;;;9.38;3.63;;;10.10;93.70;;;;;;5015397;28;20045;-67
2022/11/04 13:39:21;;;;;;;9.38;3.10;;;10.10;94.20;;;;;;5016680;28;20435;-67
2022/11/04 13:42:34;;;;;;;12.35;3.85;;;10.00;94.50;;;;;;5016928;28;20034;-67
2022/11/04 13:45:13;;;;;;;10.02;5.55;;;9.90;96.40;;;;;;5010162;28;20550;-67
2022/11/04 13:47:52;;;;;;;5.65;1.30;;;9.90;97.20;;;;;;5016361;28;20419;-67
2022/11/04 13:50:44;;;;;;;2.40;0.90;;;9.90;97.00;;;;;;5013520;28;20065;-67